createdAt,value
2022-11-16T00:01:48.078Z,9.7
2022-11-16T00:04:19.063Z,9.8
2022-11-16T00:06:49.926Z,9.7
2022-11-16T00:09:20.997Z,9.7
2022-11-16T00:11:53.925Z,9.7
2022-11-16T00:14:24.223Z,9.7
2022-11-16T00:16:55.294Z,9.7
2022-11-16T00:19:29.141Z,9.7
2022-11-16T00:21:59.554Z,9.8
2022-11-16T00:24:32.704Z,9.7
2022-11-16T00:27:09.815Z,9.8
2022-11-16T00:29:40.050Z,9.7
2022-11-16T00:32:10.167Z,9.7
2022-11-16T00:34:40.669Z,9.8
2022-11-16T00:37:11.140Z,9.7
2022-11-16T00:39:39.891Z,9.7
2022-11-16T00:42:12.711Z,9.6
2022-11-16T00:44:44.164Z,9.6
2022-11-16T00:47:14.425Z,9.6
2022-11-16T00:49:45.491Z,9.5
2022-11-16T00:52:16.642Z,9.5
2022-11-16T00:54:47.818Z,9.5
2022-11-16T00:57:19.389Z,9.5
2022-11-16T00:59:49.930Z,9.4
2022-11-16T01:02:20.058Z,9.4
2022-11-16T01:04:50.766Z,9.5
2022-11-16T01:07:21.836Z,9.4
2022-11-16T01:09:54.828Z,9.4
2022-11-16T01:12:23.673Z,9.4
2022-11-16T01:14:53.615Z,9.4
2022-11-16T01:17:24.318Z,9.5
2022-11-16T01:19:58.225Z,9.4
2022-11-16T01:22:28.924Z,9.3
2022-11-16T01:24:59.838Z,9.4
2022-11-16T01:27:30.345Z,9.3
2022-11-16T01:30:01.209Z,9.3
2022-11-16T01:32:31.437Z,9.2
2022-11-16T01:35:02.345Z,9.2
2022-11-16T01:37:33.364Z,9.1
2022-11-16T01:40:04.315Z,9.1
2022-11-16T01:42:34.546Z,9.1
2022-11-16T01:45:05.568Z,9
2022-11-16T01:47:38.808Z,9
2022-11-16T01:50:09.782Z,9
2022-11-16T01:52:40.868Z,9
2022-11-16T01:55:11.932Z,9
2022-11-16T01:57:42.213Z,9
2022-11-16T02:00:15.000Z,9
2022-11-16T02:02:48.742Z,9
2022-11-16T02:05:19.338Z,9
2022-11-16T02:07:50.918Z,9
2022-11-16T02:10:22.013Z,9
2022-11-16T02:12:52.926Z,9
2022-11-16T02:15:23.210Z,8.9
2022-11-16T02:17:56.697Z,8.9
2022-11-16T02:20:28.067Z,8.8
2022-11-16T02:22:59.068Z,8.9
2022-11-16T02:25:29.980Z,8.9
2022-11-16T02:28:00.220Z,8.9
2022-11-16T02:30:33.313Z,8.9
2022-11-16T02:33:02.223Z,8.9
2022-11-16T02:35:32.914Z,8.8
2022-11-16T02:38:05.030Z,8.8
2022-11-16T02:40:36.246Z,8.9
2022-11-16T02:43:07.350Z,8.8
2022-11-16T02:45:38.912Z,8.9
2022-11-16T02:48:09.680Z,8.9
2022-11-16T02:50:41.603Z,8.8
2022-11-16T02:53:12.435Z,8.8
2022-11-16T02:55:43.106Z,8.8
2022-11-16T02:58:13.291Z,8.8
2022-11-16T03:00:44.481Z,8.7
2022-11-16T03:03:16.466Z,8.8
2022-11-16T03:05:47.822Z,8.7
2022-11-16T03:08:20.199Z,8.8
2022-11-16T03:10:52.027Z,8.8
2022-11-16T03:13:23.140Z,8.8
2022-11-16T03:15:55.417Z,8.8
2022-11-16T03:18:29.246Z,8.7
2022-11-16T03:20:59.878Z,8.7
2022-11-16T03:23:30.526Z,8.6
2022-11-16T03:26:00.923Z,8.6
2022-11-16T03:28:31.238Z,8.7
2022-11-16T03:31:01.223Z,8.7
2022-11-16T03:33:31.424Z,8.7
2022-11-16T03:36:01.498Z,8.7
2022-11-16T03:38:32.227Z,8.7
2022-11-16T03:41:02.494Z,8.7
2022-11-16T03:43:33.345Z,8.7
2022-11-16T03:46:03.834Z,8.6
2022-11-16T03:48:33.864Z,8.6
2022-11-16T03:51:04.791Z,8.6
2022-11-16T03:53:38.002Z,8.8
2022-11-16T03:56:09.166Z,8.8
2022-11-16T03:58:39.340Z,8.8
2022-11-16T04:01:10.411Z,8.8
2022-11-16T04:03:42.688Z,8.8
2022-11-16T04:06:13.240Z,8.8
2022-11-16T04:08:41.593Z,8.8
2022-11-16T04:11:11.992Z,8.8
2022-11-16T04:13:41.420Z,8.9
2022-11-16T04:16:14.031Z,8.9
2022-11-16T04:18:44.756Z,8.9
2022-11-16T04:21:15.274Z,8.9
2022-11-16T04:23:46.099Z,8.9
2022-11-16T04:26:16.485Z,9
2022-11-16T04:28:48.648Z,8.9
2022-11-16T04:31:21.321Z,8.9
2022-11-16T04:33:52.113Z,8.9
2022-11-16T04:36:22.521Z,8.9
2022-11-16T04:38:53.535Z,8.9
2022-11-16T04:41:24.167Z,8.9
2022-11-16T04:43:55.475Z,9
2022-11-16T04:46:27.496Z,9
2022-11-16T04:48:58.787Z,8.9
2022-11-16T04:51:29.054Z,9
2022-11-16T04:53:59.591Z,9
2022-11-16T04:56:30.223Z,9
2022-11-16T04:59:00.799Z,9.1
2022-11-16T05:01:31.627Z,9
2022-11-16T05:04:02.472Z,9
2022-11-16T05:06:32.832Z,9.1
2022-11-16T05:09:03.281Z,9.1
2022-11-16T05:11:34.135Z,9.2
2022-11-16T05:14:05.219Z,9.2
2022-11-16T05:16:35.749Z,9.3
2022-11-16T05:19:06.848Z,9.3
2022-11-16T05:21:37.407Z,9.3
2022-11-16T05:24:08.701Z,9.4
2022-11-16T05:26:39.428Z,9.5
2022-11-16T05:29:12.361Z,9.5
2022-11-16T05:31:42.846Z,9.6
2022-11-16T05:34:16.976Z,9.6
2022-11-16T05:36:48.887Z,9.7
2022-11-16T05:39:19.302Z,9.7
2022-11-16T05:41:49.661Z,9.8
2022-11-16T05:44:23.085Z,9.8
2022-11-16T05:46:53.654Z,9.8
2022-11-16T05:49:24.421Z,9.9
2022-11-16T05:51:56.030Z,9.9
2022-11-16T05:54:27.608Z,9.9
2022-11-16T05:56:59.119Z,9.9
2022-11-16T05:59:28.788Z,10
2022-11-16T06:01:59.511Z,10
2022-11-16T06:04:29.730Z,10.1
2022-11-16T06:07:00.621Z,10.1
2022-11-16T06:09:32.541Z,10.1
2022-11-16T06:12:01.207Z,10.2
2022-11-16T06:14:31.671Z,10.3
2022-11-16T06:17:06.036Z,10.3
2022-11-16T06:19:37.885Z,10.4
2022-11-16T06:22:09.750Z,10.4
2022-11-16T06:24:41.223Z,10.5
2022-11-16T06:27:12.331Z,10.5
2022-11-16T06:29:42.720Z,10.6
2022-11-16T06:32:16.735Z,10.6
2022-11-16T06:34:50.034Z,10.7
2022-11-16T06:37:24.418Z,10.7
2022-11-16T06:39:54.987Z,10.8
2022-11-16T06:42:25.468Z,10.9
2022-11-16T06:44:57.237Z,11
2022-11-16T06:47:31.036Z,11.1
2022-11-16T06:50:05.184Z,11.1
2022-11-16T06:52:37.002Z,11.2
2022-11-16T06:55:07.443Z,11.3
2022-11-16T06:57:39.125Z,11.4
2022-11-16T07:00:09.656Z,11.4
2022-11-16T07:02:41.676Z,11.5
2022-11-16T07:05:12.642Z,11.7
2022-11-16T07:07:42.909Z,11.7
2022-11-16T07:10:15.020Z,11.8
2022-11-16T07:12:45.566Z,11.9
2022-11-16T07:15:15.650Z,11.9
2022-11-16T07:17:48.103Z,12.1
2022-11-16T07:20:18.550Z,12.1
2022-11-16T07:22:48.594Z,12.2
2022-11-16T07:25:19.497Z,12.3
2022-11-16T07:27:48.694Z,12.3
2022-11-16T07:30:19.664Z,12.4
2022-11-16T07:32:51.381Z,12.4
2022-11-16T07:35:21.540Z,12.5
2022-11-16T07:37:53.036Z,12.6
2022-11-16T07:40:25.786Z,12.6
2022-11-16T07:42:56.183Z,12.7
2022-11-16T07:45:30.120Z,12.8
2022-11-16T07:48:03.461Z,12.8
2022-11-16T07:50:35.212Z,12.9
2022-11-16T07:53:09.026Z,13
2022-11-16T07:55:40.290Z,13.2
2022-11-16T07:58:10.559Z,13.3
2022-11-16T08:00:43.009Z,13.4
2022-11-16T08:03:14.638Z,13.4
2022-11-16T08:05:47.694Z,13.5
2022-11-16T08:08:18.055Z,13.5
2022-11-16T08:10:50.050Z,13.6
2022-11-16T08:13:20.122Z,13.6
2022-11-16T08:15:50.722Z,13.7
2022-11-16T08:18:22.380Z,13.7
2022-11-16T08:20:53.968Z,13.7
2022-11-16T08:23:25.875Z,13.8
2022-11-16T08:25:56.878Z,13.8
2022-11-16T08:28:28.369Z,13.8
2022-11-16T08:30:59.664Z,13.9
2022-11-16T08:33:31.962Z,14
2022-11-16T08:36:00.814Z,13.9
2022-11-16T08:38:31.666Z,14.1
2022-11-16T08:41:01.891Z,14.1
2022-11-16T08:43:31.053Z,14
2022-11-16T08:46:07.473Z,14.1
2022-11-16T08:48:39.184Z,14.1
2022-11-16T08:51:20.105Z,14.1
2022-11-16T08:53:42.342Z,14.1
2022-11-16T08:56:11.987Z,14.2
2022-11-16T08:58:44.693Z,14.3
2022-11-16T09:01:16.916Z,14.3
2022-11-16T09:03:49.819Z,14.4
2022-11-16T09:06:23.163Z,14.5
2022-11-16T09:08:53.093Z,14.5
2022-11-16T09:11:23.853Z,14.6
2022-11-16T09:13:55.534Z,14.6
2022-11-16T09:16:28.332Z,14.7
2022-11-16T09:18:59.656Z,14.8
2022-11-16T09:21:34.506Z,14.9
2022-11-16T09:24:05.644Z,15
2022-11-16T09:26:35.461Z,15.1
2022-11-16T09:29:07.380Z,15.1
2022-11-16T09:31:36.746Z,15.2
2022-11-16T09:34:10.087Z,15.2
2022-11-16T09:36:39.686Z,15.4
2022-11-16T09:39:29.351Z,15.4
2022-11-16T09:41:47.861Z,15.5
2022-11-16T09:44:19.124Z,15.6
2022-11-16T09:46:49.347Z,15.7
2022-11-16T09:49:21.385Z,15.7
2022-11-16T09:51:50.364Z,15.7
2022-11-16T09:54:20.891Z,15.8
2022-11-16T09:56:51.736Z,15.8
2022-11-16T09:59:22.900Z,15.9
2022-11-16T10:01:52.810Z,15.9
2022-11-16T10:04:24.159Z,15.9
2022-11-16T10:06:55.837Z,16
2022-11-16T10:09:25.449Z,16.1
2022-11-16T10:11:56.288Z,16.1
2022-11-16T10:14:27.934Z,16.1
2022-11-16T10:16:59.001Z,16.2
2022-11-16T10:19:30.660Z,16.3
2022-11-16T10:22:01.170Z,16.3
2022-11-16T10:24:38.626Z,16.3
2022-11-16T10:27:08.852Z,16.4
2022-11-16T10:29:40.305Z,16.4
2022-11-16T10:32:10.871Z,16.5
2022-11-16T10:34:41.800Z,16.5
2022-11-16T10:37:12.265Z,16.5
2022-11-16T10:39:43.330Z,16.5
2022-11-16T10:42:14.823Z,16.6
2022-11-16T10:44:45.584Z,16.7
2022-11-16T10:47:15.296Z,16.7
2022-11-16T10:49:45.392Z,16.8
2022-11-16T10:52:16.258Z,16.9
2022-11-16T10:54:47.922Z,16.9
2022-11-16T10:57:18.731Z,17
2022-11-16T10:59:49.715Z,17
2022-11-16T11:02:20.109Z,17
2022-11-16T11:04:50.133Z,17.1
2022-11-16T11:07:21.233Z,17.1
2022-11-16T11:09:49.860Z,17.2
2022-11-16T11:12:20.306Z,17.3
2022-11-16T11:14:50.690Z,17.4
2022-11-16T11:17:24.484Z,17.4
2022-11-16T11:19:55.242Z,17.4
2022-11-16T11:22:26.209Z,17.4
2022-11-16T11:24:56.718Z,17.5
2022-11-16T11:27:27.646Z,17.6
2022-11-16T11:29:59.231Z,17.6
2022-11-16T11:32:28.876Z,17.7
2022-11-16T11:34:59.984Z,17.7
2022-11-16T11:37:31.069Z,17.8
2022-11-16T11:40:02.178Z,17.8
2022-11-16T11:42:33.292Z,17.8
2022-11-16T11:45:05.361Z,17.9
2022-11-16T11:50:09.259Z,17.9
2022-11-16T11:52:39.575Z,18
2022-11-16T11:55:10.062Z,18
2022-11-16T11:57:42.421Z,18
2022-11-16T12:00:14.516Z,18
2022-11-16T12:02:45.216Z,18
2022-11-16T12:05:15.852Z,18
2022-11-16T12:07:46.073Z,18
2022-11-16T12:10:17.029Z,18.1
2022-11-16T12:12:48.932Z,18
2022-11-16T12:15:19.173Z,18
2022-11-16T12:17:49.759Z,18.1
2022-11-16T12:20:20.544Z,18.1
2022-11-16T12:22:51.130Z,18.1
2022-11-16T12:25:25.242Z,18.1
2022-11-16T12:27:56.044Z,18.1
2022-11-16T12:30:26.613Z,18.1
2022-11-16T12:32:57.144Z,18.2
2022-11-16T12:35:28.987Z,18.2
2022-11-16T12:38:00.231Z,18.2
2022-11-16T12:40:31.305Z,18.2
2022-11-16T12:43:03.242Z,18.3
2022-11-16T12:45:33.741Z,18.3
2022-11-16T12:48:06.686Z,18.4
2022-11-16T12:50:38.243Z,18.4
2022-11-16T12:53:08.811Z,18.5
2022-11-16T12:55:39.607Z,18.5
2022-11-16T12:58:10.918Z,18.5
2022-11-16T13:00:41.743Z,18.5
2022-11-16T13:03:14.268Z,18.5
2022-11-16T13:05:46.624Z,18.5
2022-11-16T13:08:17.436Z,18.5
2022-11-16T13:10:49.638Z,18.5
2022-11-16T13:13:35.763Z,18.4
2022-11-16T13:15:52.637Z,18.5
2022-11-16T13:18:22.808Z,18.5
2022-11-16T13:20:53.640Z,18.4
2022-11-16T13:23:24.989Z,18.4
2022-11-16T13:25:55.584Z,18.4
2022-11-16T13:28:29.367Z,18.5
2022-11-16T13:30:56.912Z,18.4
2022-11-16T13:33:28.778Z,18.4
2022-11-16T13:36:02.672Z,18.3
2022-11-16T13:38:33.541Z,18.3
2022-11-16T13:41:05.270Z,18.3
2022-11-16T13:43:35.927Z,18.3
2022-11-16T13:46:06.682Z,18.2
2022-11-16T13:48:38.114Z,18.2
2022-11-16T13:51:08.664Z,18.2
2022-11-16T13:56:10.200Z,18
2022-11-16T13:58:45.347Z,18
2022-11-16T14:01:16.805Z,18
2022-11-16T14:03:48.414Z,18
2022-11-16T14:06:20.445Z,18
2022-11-16T14:08:51.558Z,18
2022-11-16T14:11:21.281Z,18
2022-11-16T14:13:52.153Z,17.9
2022-11-16T14:16:27.295Z,17.9
2022-11-16T14:18:59.974Z,17.9
2022-11-16T14:21:31.266Z,17.8
2022-11-16T14:24:02.323Z,17.8
2022-11-16T14:26:36.341Z,17.7
2022-11-16T14:29:08.140Z,17.7
2022-11-16T14:31:42.555Z,17.7
2022-11-16T14:34:14.470Z,17.7
2022-11-16T14:36:45.486Z,17.7
2022-11-16T14:39:16.488Z,17.7
2022-11-16T14:41:48.885Z,17.6
2022-11-16T14:44:20.182Z,17.6
2022-11-16T14:46:50.768Z,17.6
2022-11-16T14:49:23.140Z,17.5
2022-11-16T14:51:55.085Z,17.5
2022-11-16T14:54:26.191Z,17.5
2022-11-16T14:56:58.906Z,17.4
2022-11-16T14:59:30.589Z,17.4
2022-11-16T15:02:01.942Z,17.3
2022-11-16T15:04:33.378Z,17.3
2022-11-16T15:07:05.360Z,17.3
2022-11-16T15:09:38.226Z,17.2
2022-11-16T15:12:09.963Z,17.1
2022-11-16T15:14:41.422Z,17.2
2022-11-16T15:17:13.423Z,17.1
2022-11-16T15:19:44.732Z,17.1
2022-11-16T15:22:15.923Z,17
2022-11-16T15:24:47.829Z,16.9
2022-11-16T15:27:19.269Z,17
2022-11-16T15:29:51.064Z,17
2022-11-16T15:32:24.435Z,16.9
2022-11-16T15:34:55.686Z,16.9
2022-11-16T15:37:28.403Z,16.7
2022-11-16T15:40:01.245Z,16.7
2022-11-16T15:42:41.902Z,16.5
2022-11-16T15:45:17.284Z,16.5
2022-11-16T15:47:47.604Z,16.5
2022-11-16T15:50:20.509Z,16.5
2022-11-16T15:52:51.619Z,16.5
2022-11-16T15:55:22.678Z,16.5
2022-11-16T15:57:53.487Z,16.5
2022-11-16T16:00:24.920Z,16.5
2022-11-16T16:02:57.141Z,16.4
2022-11-16T16:05:29.729Z,16.4
2022-11-16T16:08:01.094Z,16.5
2022-11-16T16:10:32.799Z,16.4
2022-11-16T16:13:07.565Z,16.3
2022-11-16T16:15:38.647Z,16.3
2022-11-16T16:18:12.700Z,16.4
2022-11-16T16:20:49.018Z,16.4
2022-11-16T16:23:23.041Z,16.4
2022-11-16T16:25:54.496Z,16.3
2022-11-16T16:28:26.540Z,16.3
2022-11-16T16:30:57.633Z,16.3
2022-11-16T16:33:30.131Z,16.3
2022-11-16T16:36:01.821Z,16.2
2022-11-16T16:38:33.001Z,16.2
2022-11-16T16:41:06.547Z,16.2
2022-11-16T16:43:38.022Z,16.2
2022-11-16T16:46:08.761Z,16.2
2022-11-16T16:48:44.446Z,16.2
2022-11-16T16:51:11.153Z,16.2
2022-11-16T16:53:42.539Z,16.1
2022-11-16T16:56:15.410Z,16.1
2022-11-16T16:58:44.865Z,16.1
2022-11-16T17:01:17.913Z,16.1
2022-11-16T17:03:49.233Z,16.1
2022-11-16T17:06:20.704Z,16.1
2022-11-16T17:08:51.514Z,16
2022-11-16T17:11:23.829Z,15.9
2022-11-16T17:13:55.388Z,15.9
2022-11-16T17:16:28.244Z,15.9
2022-11-16T17:18:57.427Z,15.9
2022-11-16T17:21:27.241Z,15.9
2022-11-16T17:24:02.644Z,16
2022-11-16T17:26:36.121Z,16
2022-11-16T17:29:05.637Z,15.9
2022-11-16T17:31:37.495Z,15.9
2022-11-16T17:34:13.676Z,15.9
2022-11-16T17:36:41.507Z,15.8
2022-11-16T17:39:12.498Z,15.9
2022-11-16T17:41:44.141Z,15.9
2022-11-16T17:44:20.247Z,15.9
2022-11-16T17:46:46.261Z,15.9
2022-11-16T17:49:19.751Z,15.9
2022-11-16T17:51:50.912Z,15.9
2022-11-16T17:54:23.491Z,15.9
2022-11-16T17:56:55.221Z,15.8
2022-11-16T17:59:29.698Z,15.8
2022-11-16T18:02:00.685Z,15.8
2022-11-16T18:04:31.914Z,15.7
2022-11-16T18:07:03.284Z,15.7
2022-11-16T18:09:34.586Z,15.7
2022-11-16T18:12:05.726Z,15.7
2022-11-16T18:14:37.246Z,15.7
2022-11-16T18:17:07.946Z,15.6
2022-11-16T18:19:40.723Z,15.6
2022-11-16T18:22:11.832Z,15.4
2022-11-16T18:24:43.130Z,15.6
2022-11-16T18:27:14.153Z,15.6
2022-11-16T18:29:46.756Z,15.6
2022-11-16T18:32:17.595Z,15.6
2022-11-16T18:34:49.662Z,15.6
2022-11-16T18:37:19.105Z,15.6
2022-11-16T18:39:51.233Z,15.6
2022-11-16T18:42:24.741Z,15.6
2022-11-16T18:44:55.902Z,15.6
2022-11-16T18:47:26.816Z,15.7
2022-11-16T18:49:59.451Z,15.7
2022-11-16T18:52:30.109Z,15.7
2022-11-16T18:55:01.164Z,15.7
2022-11-16T18:57:32.304Z,15.7
2022-11-16T19:00:17.345Z,15.7
2022-11-16T19:02:49.631Z,15.8
2022-11-16T19:05:20.543Z,15.8
2022-11-16T19:07:53.741Z,15.7
2022-11-16T19:10:25.215Z,15.7
2022-11-16T19:13:01.160Z,15.8
2022-11-16T19:15:33.465Z,15.8
2022-11-16T19:18:20.874Z,15.8
2022-11-16T19:20:36.004Z,15.8
2022-11-16T19:23:06.701Z,15.9
2022-11-16T19:25:38.910Z,15.8
2022-11-16T19:28:08.284Z,15.8
2022-11-16T19:30:39.265Z,15.7
2022-11-16T19:33:11.370Z,15.8
2022-11-16T19:35:42.770Z,15.8
2022-11-16T19:38:14.658Z,15.8
2022-11-16T19:40:45.873Z,15.8
2022-11-16T19:43:17.992Z,15.7
2022-11-16T19:45:50.492Z,15.8
2022-11-16T19:48:21.699Z,15.9
2022-11-16T19:50:53.262Z,15.8
2022-11-16T19:53:24.499Z,15.9
2022-11-16T19:55:55.922Z,15.9
2022-11-16T19:58:26.688Z,15.9
2022-11-16T20:00:58.910Z,15.9
2022-11-16T20:03:30.346Z,15.9
2022-11-16T20:06:07.763Z,16
2022-11-16T20:08:40.026Z,15.9
2022-11-16T20:11:11.240Z,15.9
2022-11-16T20:13:45.395Z,15.9
2022-11-16T20:16:14.958Z,15.8
2022-11-16T20:18:45.700Z,15.8
2022-11-16T20:21:17.902Z,15.7
2022-11-16T20:23:51.645Z,15.8
2022-11-16T20:26:26.155Z,15.8
2022-11-16T20:28:56.695Z,15.8
2022-11-16T20:31:29.821Z,15.8
2022-11-16T20:34:01.109Z,15.8
2022-11-16T20:36:32.123Z,15.9
2022-11-16T20:39:02.268Z,15.8
2022-11-16T20:41:33.528Z,15.8
2022-11-16T20:44:04.747Z,15.8
2022-11-16T20:46:37.008Z,15.8
2022-11-16T20:49:09.123Z,15.8
2022-11-16T20:51:41.629Z,15.9
2022-11-16T20:54:13.420Z,16
2022-11-16T20:56:44.271Z,16
2022-11-16T20:59:15.479Z,15.9
2022-11-16T21:01:46.579Z,15.9
2022-11-16T21:04:17.622Z,15.8
2022-11-16T21:06:48.799Z,15.9
2022-11-16T21:09:21.248Z,15.9
2022-11-16T21:11:53.397Z,15.9
2022-11-16T21:14:24.724Z,15.9
2022-11-16T21:16:57.136Z,16
2022-11-16T21:19:29.449Z,15.9
2022-11-16T21:22:00.281Z,16
2022-11-16T21:24:31.172Z,16
2022-11-16T21:27:02.610Z,16
2022-11-16T21:29:33.459Z,16
2022-11-16T21:32:04.492Z,16
2022-11-16T21:34:39.901Z,16
2022-11-16T21:37:06.801Z,16
2022-11-16T21:39:37.074Z,16
2022-11-16T21:42:10.123Z,16
2022-11-16T21:44:42.538Z,16
2022-11-16T21:47:16.043Z,16
2022-11-16T21:50:16.669Z,16
2022-11-16T21:52:21.139Z,16
2022-11-16T21:54:52.134Z,16
2022-11-16T21:57:23.905Z,15.9
2022-11-16T21:59:54.183Z,15.9
2022-11-16T22:02:26.424Z,15.9
2022-11-16T22:04:57.560Z,15.9
2022-11-16T22:07:29.760Z,15.9
2022-11-16T22:10:02.340Z,15.8
2022-11-16T22:12:34.375Z,15.8
2022-11-16T22:15:05.306Z,15.6
2022-11-16T22:17:36.313Z,15.6
2022-11-16T22:20:07.045Z,15.6
2022-11-16T22:22:38.913Z,15.6
2022-11-16T22:25:09.144Z,15.7
2022-11-16T22:27:58.631Z,15.6
2022-11-16T22:30:11.988Z,15.7
2022-11-16T22:32:43.831Z,15.6
2022-11-16T22:35:18.079Z,15.7
2022-11-16T22:37:50.308Z,15.6
2022-11-16T22:40:21.659Z,15.6
2022-11-16T22:42:52.434Z,15.6
2022-11-16T22:45:23.821Z,15.7
2022-11-16T22:47:55.492Z,15.6
2022-11-16T22:50:29.536Z,15.6
2022-11-16T22:53:01.098Z,15.6
2022-11-16T22:55:32.141Z,15.6
2022-11-16T22:58:03.755Z,15.5
2022-11-16T23:00:39.090Z,15.4
2022-11-16T23:03:05.068Z,15.4
2022-11-16T23:05:36.131Z,15.4
2022-11-16T23:08:07.420Z,15.4
2022-11-16T23:10:38.299Z,15.5
2022-11-16T23:13:09.375Z,15.4
2022-11-16T23:15:40.315Z,15.4
2022-11-16T23:18:11.158Z,15.3
2022-11-16T23:20:44.209Z,15.3
2022-11-16T23:23:16.932Z,15.2
2022-11-16T23:25:47.659Z,15.2
2022-11-16T23:28:22.615Z,15.2
2022-11-16T23:30:53.392Z,15.2
2022-11-16T23:33:24.006Z,15.2
2022-11-16T23:35:54.771Z,15.2
2022-11-16T23:38:25.553Z,15.3
2022-11-16T23:40:58.186Z,15.4
2022-11-16T23:43:29.333Z,15.3
2022-11-16T23:46:01.005Z,15.2
2022-11-16T23:48:33.803Z,15.3
2022-11-16T23:51:04.130Z,15.3
2022-11-16T23:53:35.789Z,15.3
2022-11-16T23:56:06.434Z,15.3
2022-11-16T23:58:38.992Z,15.3
